الصفحة الرئيسية
METAR-TAF:

METAR-TAF

مطار :

بورمفيلد, كولورادو, الولايات المتحدة

دائرة عرض: 39-55N, خط طول: 105-07W, ارتفاع: 1724 متر

مراقبة الطقس الحالي

تاريخ ووقت الإصدار 1ساعة و 9 دقيقة قبل الساعة 19:52UTC
ريح 5 عقدة من الشرق
درجة الحرارة 7°درجة مئوية
الرطوبة 26%
ضغط 1027 hPa
الرؤية: 80.5 كم
سماء صافية

METAR: KBJC 151952Z 08005KT 50SM SKC 07/M11 A3032

زمن: 15:01 (21:01 UTC)

توقعات

تاريخ ووقت الإصدار 3ساعات و 11 دقيقة قبل الساعة 17:50UTC
التوقعات صالحة من15 الساعة 18 UTC إلى 16 الساعة 18 UTC
ريح 5 عقدة من الجنوب/الجنوب الشرقي
الرؤية: 10 كم
غيوم قليلة على ارتفاع 12000 قدم
من 16 الساعة 0300 UTC
ريح 6 عقدة من الجنوب الغربي
الرؤية: 10 كم
غيوم قليلة على ارتفاع 12000 قدم
من 16 الساعة 0600 UTC
ريح 6 عقدة من الغرب/الشمال الغربي
الرؤية: 10 كم
غيوم قليلة على ارتفاع 12000 قدم
من 16 الساعة 1400 UTC
ريح 4 عقدةمن اتجاهات متغيرة
الرؤية: 10 كم
سماء صافية

TAF: KBJC 151750Z 1518/1618 15005KT P6SM FEW120 FM160300 23006KT P6SM FEW120 FM160600 30006KT P6SM FEW120 FM161400 VRB04KT P6SM SKC

أرصاد الطقس والتوقعات من أكثر من 4000 مطار (تقارير الطقس للمطار METAR والتنبؤ بالطقس بالمطارTAF).

المحطات المتاحة هي النقط الصفراء والحمراء على الخريطة.

حرك المؤشر فوق النقطة لمعرفة اسم المحطة.

ثم انقر لمعرفة أرصاد وتوقعات الطقس.

لتغيير الخارطة: اضغط على الأزرار الخضراء مع رمز الصليب الأسود للتكبير. على الزر الأخضر مع شرطة للتصغير، أو على الأسهم الخضراء للخرائط المجاورة.


METAR-TAF: